Time;durP1;ratioP1;P1;durP2;ratioP2;P2;SDS_P1;SDS_P2;PMS_P1;PMS_P2;Temp;Humidity;BMP_temperature;BMP_pressure;BME280_temperature;BME280_humidity;BME280_pressure;Samples;Min_cycle;Max_cycle;Signal;HPM_P1;HPM_P2
2022/06/07 00:14:51;;;;;;;18.77;8.32;;;;;;;18.10;55.25;100245.59;31570221;28;20138;-77
2022/06/07 00:29:53;;;;;;;23.80;10.70;;;;;;;17.88;55.56;100262.34;31574944;28;20135;-77
2022/06/07 00:44:55;;;;;;;32.25;11.85;;;;;;;17.68;56.31;100264.84;31599251;28;20056;-76
2022/06/07 00:59:58;;;;;;;21.27;11.52;;;;;;;17.53;57.25;100261.19;31548130;28;20046;-75
2022/06/07 01:15:00;;;;;;;19.60;9.52;;;;;;;17.43;58.12;100259.72;31554910;28;20044;-76
2022/06/07 01:30:05;;;;;;;17.55;8.70;;;;;;;17.22;58.78;100275.16;31585098;28;20044;-76
2022/06/07 01:45:07;;;;;;;15.07;7.43;;;;;;;17.12;59.33;100279.88;31568644;28;20052;-77
2022/06/07 02:00:12;;;;;;;12.63;6.95;;;;;;;17.00;59.99;100283.56;31556202;28;20492;-76
2022/06/07 02:15:14;;;;;;;13.23;6.50;;;;;;;17.05;60.69;100285.66;31523037;28;20492;-76
2022/06/07 02:30:17;;;;;;;13.93;7.32;;;;;;;17.19;61.51;100296.03;31534968;28;20507;-76
2022/06/07 02:45:19;;;;;;;12.40;6.90;;;;;;;17.44;61.40;100296.91;31540476;28;20058;-76
2022/06/07 03:00:22;;;;;;;12.95;6.03;;;;;;;17.94;60.57;100293.44;31549980;28;20060;-77
2022/06/07 03:15:24;;;;;;;10.38;6.15;;;;;;;18.17;60.61;100305.69;31560360;28;20046;-77
2022/06/07 03:30:26;;;;;;;12.35;5.70;;;;;;;18.60;59.76;100296.16;31586405;28;20044;-76
2022/06/07 03:45:28;;;;;;;12.70;4.82;;;;;;;19.05;58.80;100297.03;31571541;28;20515;-75
2022/06/07 04:00:31;;;;;;;13.10;5.63;;;;;;;19.45;57.85;100304.00;31565688;28;20489;-76
2022/06/07 04:15:34;;;;;;;26.33;6.47;;;;;;;20.02;56.71;100313.50;31580013;28;20048;-77
2022/06/07 04:30:37;;;;;;;10.50;5.40;;;;;;;20.38;56.76;100328.06;31555870;28;20144;-76
2022/06/07 04:45:40;;;;;;;14.20;5.28;;;;;;;20.99;55.77;100337.13;31558121;28;20147;-77
2022/06/07 05:00:42;;;;;;;;;;;;;;;21.72;51.78;100335.13;31572412;28;20055;-77
2022/06/07 05:15:54;;;;;;;10.43;4.05;;;;;;;22.50;50.38;100340.44;31539969;28;19978;-76
2022/06/07 05:30:56;;;;;;;6.20;3.50;;;;;;;23.32;48.92;100353.13;31539783;28;20044;-77
2022/06/07 05:46:00;;;;;;;4.47;2.80;;;;;;;24.13;44.52;100345.88;31548195;28;20049;-75
2022/06/07 06:01:04;;;;;;;8.60;2.90;;;;;;;24.46;44.26;100350.66;31590348;28;20514;-75
2022/06/07 06:16:10;;;;;;;5.75;2.58;;;;;;;25.07;42.30;100353.22;31541794;28;20484;-75
2022/06/07 06:31:13;;;;;;;9.23;3.13;;;;;;;25.47;40.89;100342.63;31602261;28;21041;-76
2022/06/07 06:46:19;;;;;;;10.07;3.38;;;;;;;25.72;39.64;100344.25;31566139;28;20139;-75
2022/06/07 07:01:34;;;;;;;4.75;1.88;;;;;;;26.55;37.23;100344.72;31589487;28;20118;-77
2022/06/07 07:16:50;;;;;;;4.50;2.03;;;;;;;27.02;33.95;100352.78;31570200;28;20052;-76
2022/06/07 07:31:52;;;;;;;6.97;1.77;;;;;;;27.25;33.51;100348.44;31554990;28;20043;-72
2022/06/07 07:46:55;;;;;;;28.65;16.42;;;;;;;27.72;32.11;100345.22;31549653;28;20048;-77
2022/06/07 08:01:58;;;;;;;2.67;1.35;;;;;;;27.95;31.06;100335.19;31539378;28;20055;-71
2022/06/07 08:17:01;;;;;;;4.68;1.80;;;;;;;27.72;31.35;100322.91;31551417;28;20392;-71
2022/06/07 08:32:03;;;;;;;3.75;1.67;;;;;;;28.73;31.61;100310.63;31542891;28;20055;-79
2022/06/07 08:47:32;;;;;;;7.95;4.95;;;;;;;29.31;28.95;100296.38;31559491;28;20047;-72
2022/06/07 09:02:59;;;;;;;8.70;6.10;;;;;;;29.20;30.25;100296.66;31571389;28;20058;-76
2022/06/07 09:18:06;;;;;;;2.75;1.25;;;;;;;29.64;29.14;100289.25;31581741;28;20052;-76
2022/06/07 09:33:19;;;;;;;2.80;1.17;;;;;;;30.21;28.66;100285.78;31561278;28;20066;-78
2022/06/07 09:48:39;;;;;;;2.75;1.00;;;;;;;29.92;27.27;100285.00;31536492;28;20050;-77
2022/06/07 10:03:54;;;;;;;18.50;2.53;;;;;;;31.33;26.36;100278.38;31530449;28;20122;-82
2022/06/07 10:19:21;;;;;;;2.83;1.45;;;;;;;32.16;24.86;100263.53;31556766;28;20487;-79
2022/06/07 10:34:35;;;;;;;3.85;1.70;;;;;;;32.34;25.07;100252.50;31587786;28;20064;-72
2022/06/07 10:49:48;;;;;;;3.95;1.55;;;;;;;32.36;23.72;100241.44;31578076;28;20052;-71
2022/06/07 11:21:01;;;;;;;2.88;1.70;;;;;;;30.75;25.29;100207.03;31552755;28;20052;-72
2022/06/07 11:36:11;;;;;;;11.93;4.60;;;;;;;29.72;27.45;100200.56;31574094;28;20059;-73
2022/06/07 11:51:18;;;;;;;9.27;4.13;;;;;;;28.74;28.10;100184.41;31574729;28;20044;-76
2022/06/07 12:06:22;;;;;;;5.22;2.95;;;;;;;28.31;28.54;100164.56;31549656;28;20559;-74
2022/06/07 12:21:26;;;;;;;6.05;1.80;;;;;;;27.93;29.44;100148.06;31565141;28;20063;-77
2022/06/07 12:36:34;;;;;;;2.47;1.38;;;;;;;27.89;28.80;100141.28;31565458;28;20044;-71
2022/06/07 12:51:37;;;;;;;7.00;1.70;;;;;;;27.67;30.07;100142.47;31539863;28;20040;-77
2022/06/07 13:06:39;;;;;;;5.65;1.60;;;;;;;27.67;30.87;100139.69;31586333;28;20131;-74
2022/06/07 13:21:54;;;;;;;3.83;1.60;;;;;;;27.51;30.33;100130.34;31550913;28;20047;-78
2022/06/07 13:37:06;;;;;;;2.60;1.25;;;;;;;27.40;31.02;100125.72;31548249;28;20066;-85
2022/06/07 14:07:43;;;;;;;4.03;1.70;;;;;;;27.04;31.51;100103.06;31546430;28;20092;-79
2022/06/07 14:22:45;;;;;;;5.03;1.30;;;;;;;26.89;32.23;100088.88;31555134;28;20051;-77
2022/06/07 14:37:50;;;;;;;4.88;1.27;;;;;;;26.74;31.96;100094.16;31570738;28;20055;-80
2022/06/07 14:52:52;;;;;;;2.35;1.30;;;;;;;26.63;32.15;100083.97;31565724;28;20474;-76
2022/06/07 15:08:11;;;;;;;6.68;1.35;;;;;;;26.51;32.37;100079.84;31552716;28;20715;-77
2022/06/07 15:23:20;;;;;;;2.60;1.15;;;;;;;26.44;32.59;100061.75;31587399;28;20476;-76
2022/06/07 15:38:24;;;;;;;4.55;2.13;;;;;;;26.32;33.30;100076.34;31579900;28;20052;-79
2022/06/07 15:53:32;;;;;;;4.35;1.95;;;;;;;26.16;33.51;100086.41;31618668;28;20078;-80
2022/06/07 16:08:35;;;;;;;4.07;1.75;;;;;;;25.96;34.10;100084.91;31580613;28;20139;-77
2022/06/07 16:23:40;;;;;;;2.75;1.33;;;;;;;25.77;34.32;100075.78;31598882;28;20059;-81
2022/06/07 16:38:45;;;;;;;2.40;1.70;;;;;;;25.62;34.99;100078.97;31576305;28;20081;-74
2022/06/07 16:53:47;;;;;;;6.43;3.15;;;;;;;25.35;35.83;100089.09;31592776;28;20052;-74
2022/06/07 17:08:52;;;;;;;2.33;1.63;;;;;;;25.10;36.56;100090.34;31556713;28;20485;-75
2022/06/07 17:23:54;;;;;;;2.20;1.30;;;;;;;24.82;37.29;100093.34;31542206;28;20056;-74
2022/06/07 17:38:56;;;;;;;2.17;1.30;;;;;;;24.49;38.34;100102.69;31574534;28;20426;-76
2022/06/07 17:53:58;;;;;;;1.43;1.17;;;;;;;24.23;39.11;100118.94;31570265;28;20598;-75
2022/06/07 18:09:00;;;;;;;;;;;;;;;23.99;41.07;100131.41;31558592;28;20056;-75
2022/06/07 18:24:03;;;;;;;2.45;1.35;;;;;;;23.79;40.65;100140.06;31574604;28;19927;-74
2022/06/07 18:39:05;;;;;;;;;;;;;;;23.56;42.78;100144.16;31562429;28;20044;-75
2022/06/07 18:54:23;;;;;;;3.15;1.90;;;;;;;23.30;43.52;100156.25;31558006;28;19920;-73
2022/06/07 19:09:26;;;;;;;4.90;1.73;;;;;;;22.89;43.45;100155.25;31578217;28;20052;-75
2022/06/07 19:24:28;;;;;;;7.03;3.40;;;;;;;22.64;44.44;100152.16;31578773;28;20515;-73
2022/06/07 19:39:30;;;;;;;4.03;2.40;;;;;;;22.49;44.90;100161.91;31580221;28;20135;-74
2022/06/07 19:54:31;;;;;;;5.03;2.33;;;;;;;22.32;45.22;100159.09;31564236;28;20067;-73
2022/06/07 20:09:34;;;;;;;5.60;2.27;;;;;;;22.18;45.69;100154.53;31590836;28;20059;-74
2022/06/07 20:24:38;;;;;;;3.70;2.33;;;;;;;21.95;46.54;100140.59;31550201;28;20527;-74
2022/06/07 20:39:41;;;;;;;2.88;1.98;;;;;;;21.73;47.58;100154.31;31544397;28;20040;-74
2022/06/07 20:54:43;;;;;;;;;;;;;;;21.65;49.23;100148.47;31561025;28;20059;-75
2022/06/07 21:09:46;;;;;;;7.93;3.05;;;;;;;21.60;47.01;100140.91;31550272;28;19927;-75
2022/06/07 21:24:48;;;;;;;6.30;3.83;;;;;;;21.41;47.50;100146.06;31572109;28;20062;-74
2022/06/07 21:39:50;;;;;;;7.40;4.35;;;;;;;21.33;47.39;100139.47;31565369;28;20066;-73
2022/06/07 21:54:53;;;;;;;10.80;5.07;;;;;;;21.15;47.68;100139.81;31549674;28;20056;-73
2022/06/07 22:09:55;;;;;;;;;;;;;;;21.05;48.79;100135.72;31566312;28;20044;-74
2022/06/07 22:24:57;;;;;;;11.38;4.78;;;;;;;20.87;48.15;100138.81;31556681;28;19926;-74
2022/06/07 22:39:59;;;;;;;9.25;4.55;;;;;;;20.59;48.13;100139.31;31588221;28;20407;-74
2022/06/07 22:55:32;;;;;;;10.02;5.13;;;;;;;20.39;50.36;100125.56;31567931;28;20059;-74
2022/06/07 23:10:35;;;;;;;22.33;10.53;;;;;;;20.27;49.43;100115.63;31569998;28;20058;-73
2022/06/07 23:25:37;;;;;;;36.20;15.52;;;;;;;20.07;50.03;100117.19;31582188;28;20049;-74
2022/06/07 23:40:39;;;;;;;14.48;7.45;;;;;;;19.95;51.26;100104.50;31569742;28;20048;-73
2022/06/07 23:55:44;;;;;;;23.10;10.40;;;;;;;19.77;52.27;100104.78;31566675;28;20066;-74
